Time;durP1;ratioP1;P1;durP2;ratioP2;P2;SDS_P1;SDS_P2;PMS_P1;PMS_P2;Temp;Humidity;BMP_temperature;BMP_pressure;BME280_temperature;BME280_humidity;BME280_pressure;Samples;Min_cycle;Max_cycle;Signal;HPM_P1;HPM_P2
2023/09/15 00:00:20;;;;;;;14.02;11.48;;;20.40;99.90;;;;;;4933437;29;20102;-77
2023/09/15 00:02:48;;;;;;;15.90;12.10;;;20.40;99.90;;;;;;4949297;28;20110;-76
2023/09/15 00:05:18;;;;;;;15.18;12.88;;;20.30;99.90;;;;;;4935225;28;20062;-76
2023/09/15 00:07:46;;;;;;;15.00;11.23;;;20.20;99.90;;;;;;4931911;28;20055;-77
2023/09/15 00:10:15;;;;;;;14.23;12.25;;;20.20;99.90;;;;;;4934273;28;20039;-76
2023/09/15 00:12:43;;;;;;;13.43;11.15;;;20.20;99.90;;;;;;4934451;29;20085;-77
2023/09/15 00:15:14;;;;;;;12.98;10.70;;;20.10;99.90;;;;;;4950021;28;20040;-77
2023/09/15 00:17:43;;;;;;;13.82;11.65;;;20.10;99.90;;;;;;4936382;28;20047;-76
2023/09/15 00:20:13;;;;;;;15.68;11.95;;;20.20;99.90;;;;;;4934866;28;20098;-76
2023/09/15 00:22:42;;;;;;;13.35;10.95;;;20.20;99.90;;;;;;4955889;28;20043;-73
2023/09/15 00:25:10;;;;;;;15.10;11.52;;;20.10;99.90;;;;;;4966169;28;20043;-72
2023/09/15 00:27:39;;;;;;;14.75;11.73;;;20.10;99.90;;;;;;4960705;28;20050;-75
2023/09/15 00:30:10;;;;;;;16.42;11.90;;;20.00;99.90;;;;;;4955520;28;20134;-75
2023/09/15 00:32:40;;;;;;;12.45;9.75;;;19.90;99.90;;;;;;4949747;28;20375;-76
2023/09/15 00:35:08;;;;;;;13.65;9.55;;;20.00;99.90;;;;;;4947405;28;20119;-76
2023/09/15 00:37:35;;;;;;;11.00;8.93;;;20.00;99.90;;;;;;4968757;28;20069;-78
2023/09/15 00:40:06;;;;;;;11.00;8.32;;;20.00;99.90;;;;;;4948960;28;20043;-78
2023/09/15 00:42:34;;;;;;;11.32;9.07;;;20.00;99.90;;;;;;4952447;28;20074;-75
2023/09/15 00:45:05;;;;;;;14.43;9.10;;;19.90;99.90;;;;;;4948688;28;20495;-76
2023/09/15 00:47:33;;;;;;;11.88;9.10;;;20.00;99.90;;;;;;4965307;28;20048;-77
2023/09/15 00:50:04;;;;;;;10.02;8.30;;;19.90;99.90;;;;;;4948153;28;20043;-77
2023/09/15 00:52:34;;;;;;;13.30;8.23;;;19.90;99.90;;;;;;4947901;28;20094;-75
2023/09/15 00:55:04;;;;;;;9.48;7.90;;;19.90;99.90;;;;;;4964747;28;20054;-78
2023/09/15 00:57:31;;;;;;;8.82;7.10;;;19.90;99.90;;;;;;4945925;28;20571;-78
2023/09/15 01:00:02;;;;;;;9.82;7.05;;;19.90;99.90;;;;;;4951147;28;20077;-73
2023/09/15 01:02:30;;;;;;;10.32;8.48;;;19.90;99.90;;;;;;4949992;28;20507;-76
2023/09/15 01:04:58;;;;;;;12.07;8.65;;;19.90;99.90;;;;;;4963686;28;20082;-76
2023/09/15 01:07:28;;;;;;;13.52;9.00;;;19.80;99.90;;;;;;4958730;28;20039;-76
2023/09/15 01:09:56;;;;;;;13.77;8.60;;;19.80;99.90;;;;;;4964770;28;20055;-75
2023/09/15 01:12:24;;;;;;;14.40;8.98;;;19.80;99.90;;;;;;4947408;28;20038;-73
2023/09/15 01:14:52;;;;;;;14.68;9.05;;;19.80;99.90;;;;;;4949094;28;20134;-76
2023/09/15 01:17:24;;;;;;;13.02;9.05;;;19.80;99.90;;;;;;4944948;28;20114;-76
2023/09/15 01:20:06;;;;;;;14.80;9.90;;;19.80;99.90;;;;;;4964809;28;20047;-74
2023/09/15 01:23:08;;;;;;;16.13;8.73;;;19.80;99.90;;;;;;4969490;28;20106;-74
2023/09/15 01:26:21;;;;;;;12.43;9.68;;;19.80;99.90;;;;;;4952616;28;20059;-75
2023/09/15 01:29:14;;;;;;;13.55;8.63;;;19.80;99.90;;;;;;4874547;29;20064;-75
2023/09/15 01:31:45;;;;;;;9.80;7.55;;;19.70;99.90;;;;;;4890698;29;20061;-75
2023/09/15 01:34:19;;;;;;;10.55;8.02;;;19.70;99.90;;;;;;4858471;29;20544;-76
2023/09/15 01:36:46;;;;;;;9.10;7.88;;;19.70;99.90;;;;;;4865125;29;20094;-75
2023/09/15 01:39:14;;;;;;;9.02;7.18;;;19.70;99.90;;;;;;4868027;29;20072;-76
2023/09/15 01:41:42;;;;;;;9.02;6.55;;;19.60;99.90;;;;;;4871534;29;20052;-76
2023/09/15 01:44:10;;;;;;;8.65;6.45;;;19.40;99.90;;;;;;4858559;29;20127;-77
2023/09/15 01:46:38;;;;;;;10.75;8.20;;;19.20;99.90;;;;;;4859208;29;20037;-77
2023/09/15 01:49:07;;;;;;;10.00;8.23;;;19.20;99.90;;;;;;4872341;29;20359;-77
2023/09/15 01:51:35;;;;;;;11.68;8.68;;;19.20;99.90;;;;;;4867864;29;20050;-75
2023/09/15 01:54:03;;;;;;;14.10;11.20;;;19.10;99.90;;;;;;4872082;29;20064;-77
2023/09/15 01:56:31;;;;;;;16.08;11.55;;;19.00;99.90;;;;;;4855916;29;20041;-75
2023/09/15 01:58:59;;;;;;;13.73;10.90;;;19.00;99.90;;;;;;4863505;29;20129;-75
2023/09/15 02:01:26;;;;;;;15.13;11.70;;;18.90;99.90;;;;;;4862436;29;20078;-76
2023/09/15 02:03:54;;;;;;;13.10;9.60;;;18.80;99.90;;;;;;4944450;28;20119;-76
2023/09/15 02:06:25;;;;;;;11.55;8.95;;;18.80;99.90;;;;;;4948625;28;20046;-77
2023/09/15 02:08:52;;;;;;;10.70;9.27;;;18.70;99.90;;;;;;4950812;28;20042;-76
2023/09/15 02:11:22;;;;;;;10.13;8.32;;;18.70;99.90;;;;;;4949937;28;20105;-75
2023/09/15 02:13:50;;;;;;;11.90;8.00;;;18.70;99.90;;;;;;4953551;28;20047;-76
2023/09/15 02:16:17;;;;;;;9.10;7.15;;;18.70;99.90;;;;;;4954824;28;20042;-75
2023/09/15 02:18:47;;;;;;;9.85;6.55;;;18.50;99.90;;;;;;4948957;28;20499;-78
2023/09/15 02:21:14;;;;;;;11.75;6.80;;;18.40;99.90;;;;;;4951443;28;20125;-76
2023/09/15 02:23:44;;;;;;;10.30;7.60;;;18.30;99.90;;;;;;4952748;28;20122;-75
2023/09/15 02:26:11;;;;;;;9.73;7.85;;;18.20;99.90;;;;;;4963194;28;20050;-76
2023/09/15 02:28:39;;;;;;;10.88;9.48;;;18.20;99.90;;;;;;4950673;28;20046;-76
2023/09/15 02:31:07;;;;;;;11.38;9.00;;;18.10;99.90;;;;;;4964415;28;20471;-75
2023/09/15 02:33:35;;;;;;;12.95;9.43;;;18.10;99.90;;;;;;4960439;28;20480;-73
2023/09/15 02:36:03;;;;;;;12.05;8.95;;;18.10;99.90;;;;;;4961536;28;20133;-76
2023/09/15 02:38:30;;;;;;;15.02;9.55;;;18.10;99.90;;;;;;4966091;28;20084;-77
2023/09/15 02:41:00;;;;;;;11.95;9.90;;;18.00;99.90;;;;;;4953952;28;20051;-75
2023/09/15 02:43:30;;;;;;;13.23;9.85;;;17.90;99.90;;;;;;4948547;28;20043;-75
2023/09/15 02:46:04;;;;;;;13.65;10.40;;;17.90;99.90;;;;;;4957580;28;20050;-77
2023/09/15 02:48:32;;;;;;;14.93;9.90;;;18.00;99.90;;;;;;4965838;28;20111;-75
2023/09/15 02:51:00;;;;;;;13.13;10.80;;;17.90;99.90;;;;;;4958412;28;20038;-75
2023/09/15 02:53:28;;;;;;;14.20;10.88;;;17.90;99.90;;;;;;4959042;28;20034;-75
2023/09/15 02:55:57;;;;;;;13.02;11.07;;;18.00;99.90;;;;;;4952229;28;20153;-77
2023/09/15 02:58:28;;;;;;;12.70;10.55;;;18.00;99.90;;;;;;4951932;28;20194;-74
2023/09/15 03:00:56;;;;;;;14.07;10.40;;;18.00;99.90;;;;;;4957142;28;20054;-77
2023/09/15 03:03:25;;;;;;;15.55;10.70;;;17.80;99.90;;;;;;4967917;28;20043;-77
2023/09/15 03:06:03;;;;;;;17.63;10.90;;;17.80;99.90;;;;;;4961191;28;20071;-76
2023/09/15 03:08:34;;;;;;;16.60;11.77;;;17.70;99.90;;;;;;4950903;28;20046;-76
2023/09/15 03:11:02;;;;;;;15.50;10.68;;;17.70;99.90;;;;;;4957707;28;20066;-76
2023/09/15 03:13:32;;;;;;;16.25;10.65;;;17.60;99.90;;;;;;4962802;28;20046;-77
2023/09/15 03:16:09;;;;;;;16.00;11.98;;;17.70;99.90;;;;;;4964674;28;20042;-75
2023/09/15 03:18:37;;;;;;;13.60;10.45;;;17.70;99.90;;;;;;4965523;28;20109;-75
2023/09/15 03:21:10;;;;;;;14.48;11.80;;;17.60;99.90;;;;;;4965099;28;20047;-76
2023/09/15 03:23:38;;;;;;;15.55;11.40;;;17.60;99.90;;;;;;4960040;28;20038;-76
2023/09/15 03:26:06;;;;;;;15.48;11.50;;;17.60;99.90;;;;;;4952206;28;20520;-76
2023/09/15 03:28:39;;;;;;;15.90;12.05;;;17.50;99.90;;;;;;4951957;28;20049;-77
2023/09/15 03:31:08;;;;;;;12.82;10.85;;;17.50;99.90;;;;;;4951043;28;20047;-75
2023/09/15 03:33:37;;;;;;;15.15;10.65;;;17.60;99.90;;;;;;4951264;28;20588;-74
2023/09/15 03:36:06;;;;;;;13.55;11.00;;;17.60;99.90;;;;;;4961547;28;20074;-76
2023/09/15 03:38:35;;;;;;;13.75;10.88;;;17.50;99.90;;;;;;4962266;28;20142;-76
2023/09/15 03:41:05;;;;;;;12.57;10.57;;;17.50;99.90;;;;;;4973295;28;20093;-76
2023/09/15 03:43:34;;;;;;;15.05;11.25;;;17.40;99.90;;;;;;4960313;28;20066;-76
2023/09/15 03:46:03;;;;;;;14.07;10.98;;;17.30;99.90;;;;;;4967122;28;20047;-74
2023/09/15 03:48:32;;;;;;;13.93;9.73;;;17.30;99.90;;;;;;4970656;28;20686;-73
2023/09/15 03:51:00;;;;;;;13.32;9.98;;;17.30;99.90;;;;;;4986776;28;20074;-75
2023/09/15 03:53:29;;;;;;;14.95;10.52;;;17.20;99.90;;;;;;4974031;28;20062;-75
2023/09/15 03:55:55;;;;;;;13.82;9.50;;;17.10;99.90;;;;;;4980359;28;20035;-75
2023/09/15 03:58:24;;;;;;;13.98;10.05;;;17.00;99.90;;;;;;4982700;28;20078;-78
2023/09/15 04:00:52;;;;;;;15.77;11.50;;;16.90;99.90;;;;;;4965381;28;20046;-75
2023/09/15 04:03:23;;;;;;;13.88;10.52;;;16.90;99.90;;;;;;4971753;28;20110;-74
2023/09/15 04:05:50;;;;;;;18.35;11.48;;;16.80;99.90;;;;;;4956068;28;20055;-77
2023/09/15 04:08:18;;;;;;;14.45;10.20;;;16.80;99.90;;;;;;4956022;28;20043;-74
2023/09/15 04:10:46;;;;;;;16.67;11.23;;;16.80;99.90;;;;;;4956762;28;20047;-75
2023/09/15 04:13:13;;;;;;;13.48;10.63;;;16.80;99.90;;;;;;4967777;28;20141;-76
2023/09/15 04:15:41;;;;;;;13.75;11.10;;;16.80;99.90;;;;;;4965565;28;20050;-76
2023/09/15 04:18:09;;;;;;;16.60;10.38;;;16.80;99.90;;;;;;4966205;28;20499;-74
2023/09/15 04:20:38;;;;;;;15.98;10.32;;;16.80;99.90;;;;;;4955823;28;20035;-76
2023/09/15 04:23:06;;;;;;;14.32;10.82;;;17.00;99.90;;;;;;4954440;28;20058;-76
2023/09/15 04:25:34;;;;;;;18.90;11.20;;;17.00;99.90;;;;;;4973496;28;20097;-76
2023/09/15 04:28:02;;;;;;;20.08;11.15;;;16.90;99.90;;;;;;4950728;28;20054;-75
2023/09/15 04:30:31;;;;;;;16.00;10.52;;;16.90;99.90;;;;;;4947044;28;20554;-76
2023/09/15 04:32:59;;;;;;;13.38;10.23;;;16.90;99.90;;;;;;4962096;28;20066;-75
2023/09/15 04:35:28;;;;;;;15.70;10.55;;;16.90;99.90;;;;;;4961548;28;20047;-75
2023/09/15 04:37:58;;;;;;;13.77;10.40;;;16.90;99.90;;;;;;4960875;28;20119;-79
2023/09/15 04:40:27;;;;;;;19.33;13.07;;;16.90;99.90;;;;;;4962234;28;20050;-76
2023/09/15 04:42:55;;;;;;;18.27;12.75;;;16.90;99.90;;;;;;4949818;28;20049;-77
2023/09/15 04:45:25;;;;;;;18.67;12.88;;;16.90;99.90;;;;;;4949854;28;20058;-76
2023/09/15 04:47:54;;;;;;;19.67;13.32;;;16.80;99.90;;;;;;4961003;28;20043;-76
2023/09/15 04:50:24;;;;;;;30.63;15.30;;;17.00;99.90;;;;;;4952973;28;20054;-75
2023/09/15 04:52:53;;;;;;;23.00;15.50;;;17.10;99.90;;;;;;4953062;28;20039;-74
2023/09/15 04:55:22;;;;;;;23.98;14.65;;;17.30;99.90;;;;;;4949065;28;20047;-76
2023/09/15 04:57:51;;;;;;;30.02;15.25;;;17.40;99.90;;;;;;4946444;28;20647;-74
2023/09/15 05:00:23;;;;;;;38.85;17.23;;;17.40;99.90;;;;;;4961055;28;20204;-76
2023/09/15 05:02:56;;;;;;;39.88;18.17;;;17.50;99.90;;;;;;4968666;28;20057;-75
2023/09/15 05:05:25;;;;;;;36.13;16.20;;;17.70;99.90;;;;;;4951726;28;20053;-77
2023/09/15 05:07:53;;;;;;;18.42;11.50;;;17.70;99.90;;;;;;4964804;28;20051;-74
2023/09/15 05:10:22;;;;;;;16.67;9.35;;;17.80;99.90;;;;;;4946995;28;20133;-75
2023/09/15 05:12:52;;;;;;;15.48;9.68;;;17.70;99.90;;;;;;4968651;28;20053;-73
2023/09/15 05:15:22;;;;;;;15.35;10.75;;;17.80;1.00;;;;;;4949930;28;20045;-76
2023/09/15 05:17:50;;;;;;;19.55;12.38;;;17.80;1.00;;;;;;4949208;28;20407;-76
2023/09/15 05:20:19;;;;;;;20.08;12.77;;;17.80;1.00;;;;;;4950591;28;20051;-75
2023/09/15 05:22:46;;;;;;;17.58;12.95;;;17.80;1.00;;;;;;4948287;28;20142;-74
2023/09/15 05:25:17;;;;;;;25.17;15.98;;;17.90;1.00;;;;;;4952033;28;20125;-77
2023/09/15 05:27:46;;;;;;;25.25;17.02;;;18.00;1.00;;;;;;4969997;28;20063;-75
2023/09/15 05:30:15;;;;;;;25.92;16.42;;;18.00;1.00;;;;;;4966199;28;20352;-76
2023/09/15 05:32:44;;;;;;;27.30;16.67;;;18.20;1.00;;;;;;4963924;28;20109;-75
2023/09/15 05:35:12;;;;;;;26.88;16.85;;;18.40;1.00;;;;;;4953432;28;20046;-75
2023/09/15 05:37:40;;;;;;;29.08;18.70;;;18.60;1.00;;;;;;4966490;28;20158;-75
2023/09/15 05:40:09;;;;;;;24.25;16.20;;;18.60;1.00;;;;;;4947753;28;20054;-77
2023/09/15 05:42:37;;;;;;;24.42;16.08;;;18.70;1.00;;;;;;4952166;28;20138;-74
2023/09/15 05:45:07;;;;;;;21.08;15.38;;;18.90;1.00;;;;;;4949497;28;20050;-77
2023/09/15 05:47:35;;;;;;;21.73;15.20;;;18.90;1.00;;;;;;4962172;28;20050;-77
2023/09/15 05:50:04;;;;;;;26.75;16.00;;;19.00;99.90;;;;;;4964853;28;20077;-77
2023/09/15 05:52:31;;;;;;;21.88;16.08;;;19.20;1.00;;;;;;4960026;28;20043;-75
2023/09/15 05:55:04;;;;;;;18.30;13.48;;;19.30;1.00;;;;;;4962356;28;20047;-75
2023/09/15 05:57:32;;;;;;;18.52;13.73;;;19.40;1.00;;;;;;4968881;28;20114;-76
2023/09/15 06:00:00;;;;;;;21.38;14.80;;;19.50;99.90;;;;;;4968555;28;20082;-76
2023/09/15 06:02:29;;;;;;;26.33;17.42;;;19.70;1.00;;;;;;4978601;28;20099;-77
2023/09/15 06:04:56;;;;;;;35.15;20.92;;;19.70;1.00;;;;;;4977776;28;20039;-76
2023/09/15 06:07:24;;;;;;;35.28;21.67;;;19.70;99.90;;;;;;4976972;28;20051;-77
2023/09/15 06:09:52;;;;;;;39.30;22.50;;;19.70;99.90;;;;;;4975987;28;20055;-74
2023/09/15 06:12:19;;;;;;;41.17;24.75;;;20.10;99.90;;;;;;4971979;28;20046;-75
2023/09/15 06:14:53;;;;;;;38.15;22.13;;;20.30;99.90;;;;;;4966931;28;20053;-75
2023/09/15 06:17:21;;;;;;;30.25;19.55;;;20.60;1.00;;;;;;4958700;28;20074;-76
2023/09/15 06:19:51;;;;;;;37.38;20.65;;;20.70;99.90;;;;;;4972975;28;20149;-74
2023/09/15 06:22:19;;;;;;;39.80;22.52;;;20.80;1.00;;;;;;4960766;28;20129;-73
2023/09/15 06:24:47;;;;;;;37.53;22.73;;;20.90;1.00;;;;;;4978577;28;20051;-77
2023/09/15 06:27:16;;;;;;;41.13;24.85;;;21.00;1.00;;;;;;4970886;28;20057;-74
2023/09/15 06:29:43;;;;;;;45.05;24.92;;;21.10;1.00;;;;;;4963010;28;20049;-78
2023/09/15 06:32:15;;;;;;;45.40;28.23;;;21.20;1.00;;;;;;4957523;28;20515;-73
2023/09/15 06:34:43;;;;;;;41.95;24.90;;;21.30;1.00;;;;;;4957341;28;20047;-76
2023/09/15 06:37:13;;;;;;;41.80;25.45;;;21.40;1.00;;;;;;4967290;28;20039;-74
2023/09/15 06:39:43;;;;;;;40.30;22.85;;;21.40;99.90;;;;;;4983658;28;20078;-75
2023/09/15 06:42:11;;;;;;;40.30;25.23;;;21.50;99.90;;;;;;4960376;28;20053;-76
2023/09/15 06:44:42;;;;;;;39.85;23.73;;;21.60;99.90;;;;;;4959044;28;20071;-75
2023/09/15 06:47:09;;;;;;;32.30;19.60;;;21.80;99.90;;;;;;4971743;28;20134;-76
2023/09/15 06:49:39;;;;;;;30.13;19.00;;;21.90;99.90;;;;;;4974989;28;20061;-74
2023/09/15 06:52:07;;;;;;;31.08;19.35;;;22.00;35.60;;;;;;4972661;28;20051;-73
2023/09/15 06:54:36;;;;;;;32.42;18.40;;;22.10;34.60;;;;;;4968917;28;20066;-77
2023/09/15 06:57:07;;;;;;;52.88;21.75;;;22.20;1.00;;;;;;4969269;28;20246;-73
2023/09/15 06:59:37;;;;;;;30.55;19.10;;;22.10;1.00;;;;;;4971246;28;20458;-75
2023/09/15 07:02:19;;;;;;;41.03;20.52;;;22.10;1.00;;;;;;4971402;28;20106;-73
2023/09/15 07:04:47;;;;;;;36.22;23.23;;;22.00;1.00;;;;;;4969948;28;20102;-74
2023/09/15 07:07:16;;;;;;;44.67;20.88;;;22.20;1.00;;;;;;4967876;28;20471;-75
2023/09/15 07:09:47;;;;;;;22.90;15.82;;;22.30;1.00;;;;;;4967807;28;20047;-76
2023/09/15 07:12:15;;;;;;;21.25;14.45;;;22.50;1.00;;;;;;4956609;28;20125;-77
2023/09/15 07:14:42;;;;;;;15.75;11.57;;;22.60;1.00;;;;;;4968498;28;20049;-77
2023/09/15 07:17:15;;;;;;;15.38;11.32;;;22.50;1.00;;;;;;4966753;28;20047;-76
2023/09/15 07:19:46;;;;;;;34.30;14.57;;;22.50;1.00;;;;;;4967617;28;20063;-78
2023/09/15 07:22:17;;;;;;;17.13;13.95;;;22.50;1.00;;;;;;4979302;28;20066;-77
2023/09/15 07:24:49;;;;;;;20.90;15.70;;;22.60;1.00;;;;;;4973134;28;20109;-77
2023/09/15 07:27:17;;;;;;;22.27;16.48;;;22.60;17.50;;;;;;4962573;28;20058;-77
2023/09/15 07:29:46;;;;;;;30.98;19.52;;;22.40;1.00;;;;;;4965139;28;20073;-79
2023/09/15 07:32:14;;;;;;;28.55;18.77;;;22.20;1.00;;;;;;4950453;28;20058;-77
2023/09/15 07:35:28;;;;;;;34.40;21.88;;;22.20;1.00;;;;;;4941646;28;20065;-75
2023/09/15 07:38:02;;;;;;;30.02;22.92;;;22.30;2.90;;;;;;4878493;29;20063;-77
2023/09/15 07:43:53;;;;;;;;;;;;;;;;;;;;;
2023/09/15 07:47:14;;;;;;;25.45;19.48;;;22.70;1.00;;;;;;4888186;29;20227;-78
2023/09/15 12:31:04;;;;;;;;;;;;;;;;;;;;;
2023/09/15 15:25:33;;;;;;;21.45;19.45;;;25.70;99.90;;;;;;6171090;22;20048;-85
2023/09/15 15:28:26;;;;;;;55.15;49.22;;;25.50;99.90;;;;;;6210538;23;20024;-81
2023/09/15 15:37:41;;;;;;;;;;;25.40;99.90;;;;;;6211315;23;20474;-79
2023/09/15 15:40:10;;;;;;;23.00;21.00;;;25.20;99.90;;;;;;6209585;23;19922;-78
2023/09/15 15:42:40;;;;;;;27.17;24.42;;;25.10;99.90;;;;;;6163750;23;20450;-78
2023/09/15 15:45:08;;;;;;;23.75;21.85;;;25.00;99.90;;;;;;6183455;23;20077;-77
2023/09/15 15:47:36;;;;;;;24.05;21.92;;;24.90;99.90;;;;;;6184283;23;20025;-77
2023/09/15 15:50:04;;;;;;;24.33;22.23;;;24.70;99.90;;;;;;6187150;23;20025;-78
2023/09/15 15:52:32;;;;;;;24.52;22.52;;;24.50;99.90;;;;;;6155127;23;20024;-78
2023/09/15 15:55:00;;;;;;;22.50;20.52;;;24.30;99.90;;;;;;6190859;23;20075;-77
2023/09/15 15:57:28;;;;;;;23.17;21.13;;;24.20;99.90;;;;;;6194110;23;20021;-80
2023/09/15 15:59:57;;;;;;;24.13;22.00;;;24.20;99.90;;;;;;6183861;23;20036;-78
2023/09/15 16:02:24;;;;;;;20.73;19.02;;;24.20;99.90;;;;;;6184385;23;20366;-76
2023/09/15 16:04:52;;;;;;;21.25;19.30;;;24.10;99.90;;;;;;6187931;23;20044;-77
2023/09/15 16:07:21;;;;;;;19.13;17.33;;;24.10;99.90;;;;;;6179531;23;20445;-78
2023/09/15 16:09:51;;;;;;;18.17;16.48;;;24.10;99.90;;;;;;6190646;23;20115;-78
2023/09/15 16:12:19;;;;;;;15.55;14.13;;;24.00;99.90;;;;;;6178329;23;20021;-79
2023/09/15 16:14:47;;;;;;;12.95;11.68;;;24.00;99.90;;;;;;6178125;23;20017;-77
2023/09/15 16:17:15;;;;;;;12.45;11.10;;;24.00;99.90;;;;;;6184759;23;20069;-76
2023/09/15 16:19:43;;;;;;;11.00;9.50;;;23.90;99.90;;;;;;6187019;23;20446;-78
2023/09/15 16:22:11;;;;;;;11.07;10.02;;;23.80;99.90;;;;;;6188908;23;20021;-77
2023/09/15 16:24:39;;;;;;;13.65;10.13;;;23.70;99.90;;;;;;6192382;23;20075;-80
2023/09/15 16:27:06;;;;;;;10.43;8.90;;;23.60;99.90;;;;;;6180533;23;20025;-79
2023/09/15 16:29:34;;;;;;;10.15;9.15;;;23.60;99.90;;;;;;6184987;23;20031;-77
2023/09/15 16:32:02;;;;;;;11.00;9.23;;;23.50;99.90;;;;;;6186861;23;20056;-83
2023/09/15 16:34:31;;;;;;;12.75;10.65;;;23.50;99.90;;;;;;6189359;23;20029;-78
2023/09/15 16:36:58;;;;;;;13.35;10.93;;;23.40;99.90;;;;;;6190400;23;20020;-78
2023/09/15 16:39:26;;;;;;;16.08;12.90;;;23.30;99.90;;;;;;6179583;23;20116;-80
2023/09/15 16:41:53;;;;;;;16.17;13.68;;;23.20;99.90;;;;;;6178645;23;20036;-79
2023/09/15 16:44:21;;;;;;;13.27;11.38;;;23.30;99.90;;;;;;6185537;23;20425;-78
2023/09/15 16:46:48;;;;;;;13.43;11.23;;;23.20;99.90;;;;;;6186470;23;20029;-78
2023/09/15 16:49:16;;;;;;;13.77;10.75;;;23.10;99.90;;;;;;6189608;23;20043;-78
2023/09/15 16:51:47;;;;;;;12.23;10.18;;;23.10;99.90;;;;;;6195618;23;20020;-80
2023/09/15 16:54:18;;;;;;;14.02;10.88;;;22.90;99.90;;;;;;6180166;23;20025;-77
2023/09/15 16:56:55;;;;;;;11.57;10.00;;;22.90;99.90;;;;;;6182800;23;20026;-77
2023/09/15 16:59:23;;;;;;;11.90;10.68;;;22.80;99.90;;;;;;6153219;23;20025;-78
2023/09/15 17:01:53;;;;;;;11.65;10.18;;;22.80;99.90;;;;;;6186506;23;20496;-78
2023/09/15 17:04:21;;;;;;;11.20;10.10;;;22.70;99.90;;;;;;6188162;23;20033;-79
2023/09/15 17:06:50;;;;;;;11.50;9.57;;;22.70;99.90;;;;;;6190220;23;20017;-80
2023/09/15 17:09:19;;;;;;;14.60;9.88;;;22.70;99.90;;;;;;6177315;23;20080;-78
2023/09/15 17:11:47;;;;;;;12.68;11.35;;;22.70;99.90;;;;;;6181399;23;20021;-78
2023/09/15 17:14:21;;;;;;;12.90;11.52;;;22.60;99.90;;;;;;6178840;23;20021;-79
2023/09/15 17:16:48;;;;;;;14.02;12.55;;;22.60;99.90;;;;;;6178035;23;20096;-80
2023/09/15 17:19:21;;;;;;;16.00;12.85;;;22.60;99.90;;;;;;6177731;23;20021;-79
2023/09/15 17:21:51;;;;;;;15.00;13.38;;;22.60;99.90;;;;;;6179855;23;20045;-79
2023/09/15 17:24:19;;;;;;;20.15;15.55;;;22.60;99.90;;;;;;6179294;23;20498;-78
2023/09/15 17:26:48;;;;;;;26.13;17.17;;;22.60;99.90;;;;;;6177295;23;20051;-79
2023/09/15 17:29:15;;;;;;;24.38;18.70;;;22.60;99.90;;;;;;6177680;23;20331;-78
2023/09/15 17:31:43;;;;;;;22.63;19.27;;;22.60;99.90;;;;;;6185880;23;20036;-79
2023/09/15 17:34:11;;;;;;;25.40;19.98;;;22.60;99.90;;;;;;6188338;23;20056;-77
2023/09/15 17:36:39;;;;;;;18.17;15.65;;;22.50;99.90;;;;;;6177766;23;20091;-77
2023/09/15 17:39:15;;;;;;;16.88;14.18;;;22.50;99.90;;;;;;6178070;23;20021;-79
2023/09/15 17:41:43;;;;;;;19.58;15.73;;;22.50;99.90;;;;;;6177795;23;20017;-80
2023/09/15 17:44:11;;;;;;;19.17;15.43;;;22.50;99.90;;;;;;6183725;23;20454;-79
2023/09/15 17:46:39;;;;;;;17.55;15.38;;;22.50;99.90;;;;;;6186635;23;20509;-79
2023/09/15 17:49:06;;;;;;;18.27;14.80;;;22.50;99.90;;;;;;6189074;23;20041;-79
2023/09/15 17:51:34;;;;;;;22.30;17.13;;;22.50;99.90;;;;;;6191282;23;20371;-79
2023/09/15 17:54:02;;;;;;;24.70;16.13;;;22.50;99.90;;;;;;6180615;23;20056;-80
2023/09/15 17:56:31;;;;;;;22.05;15.93;;;22.40;99.90;;;;;;6181219;23;20087;-79
2023/09/15 17:58:59;;;;;;;19.85;15.85;;;22.40;99.90;;;;;;6187425;23;20029;-78
2023/09/15 18:01:26;;;;;;;22.83;15.52;;;22.40;99.90;;;;;;6189522;23;20365;-76
2023/09/15 18:03:54;;;;;;;21.63;15.20;;;22.40;99.90;;;;;;6191577;23;20017;-79
2023/09/15 18:06:21;;;;;;;23.55;15.75;;;22.30;99.90;;;;;;6181783;23;20360;-79
2023/09/15 18:08:50;;;;;;;17.92;13.73;;;22.20;99.90;;;;;;6183765;23;20029;-77
2023/09/15 18:11:18;;;;;;;17.88;13.63;;;22.20;99.90;;;;;;6185959;23;20021;-80
2023/09/15 18:13:47;;;;;;;21.67;13.75;;;22.10;99.90;;;;;;6180709;23;20040;-79
2023/09/15 18:16:16;;;;;;;22.58;14.98;;;22.10;99.90;;;;;;6192164;23;20100;-79
2023/09/15 18:18:44;;;;;;;20.80;15.43;;;22.20;99.90;;;;;;6194911;23;20452;-80
2023/09/15 18:21:12;;;;;;;23.83;15.98;;;22.10;99.90;;;;;;6187060;23;20083;-79
2023/09/15 18:23:40;;;;;;;22.02;14.65;;;22.00;99.90;;;;;;6182869;23;20084;-77
2023/09/15 18:26:07;;;;;;;22.77;17.50;;;21.80;99.90;;;;;;6186609;23;20025;-81
2023/09/15 18:28:35;;;;;;;24.77;17.65;;;21.70;99.90;;;;;;6190873;23;20029;-79
2023/09/15 18:31:04;;;;;;;20.02;14.57;;;21.70;99.90;;;;;;6179280;23;20079;-79
2023/09/15 18:33:32;;;;;;;21.80;16.10;;;21.70;99.90;;;;;;6191960;23;20091;-79
2023/09/15 18:35:59;;;;;;;20.50;14.77;;;21.70;99.90;;;;;;6174811;23;20096;-79
2023/09/15 18:38:28;;;;;;;22.98;16.85;;;21.60;99.90;;;;;;6175440;23;20034;-79
2023/09/15 18:44:35;;;;;;;20.38;13.95;;;21.50;99.90;;;;;;6151009;23;20548;-78
2023/09/15 18:47:12;;;;;;;19.63;13.82;;;21.40;99.90;;;;;;6174890;23;20029;-78
2023/09/15 18:49:40;;;;;;;17.27;13.65;;;21.30;99.90;;;;;;6150030;23;20082;-78
2023/09/15 18:52:08;;;;;;;18.65;12.55;;;21.30;99.90;;;;;;6159924;23;20013;-77
2023/09/15 18:54:35;;;;;;;20.90;12.35;;;21.40;99.90;;;;;;6175383;23;20025;-78
2023/09/15 18:57:03;;;;;;;18.58;13.50;;;21.40;99.90;;;;;;6173897;23;20053;-77
2023/09/15 18:59:30;;;;;;;16.80;12.82;;;21.40;99.90;;;;;;6173925;23;20013;-79
2023/09/15 19:01:58;;;;;;;19.33;12.70;;;21.40;99.90;;;;;;6181187;23;20085;-77
2023/09/15 19:04:27;;;;;;;16.55;12.70;;;21.50;99.90;;;;;;6156046;23;20025;-77
2023/09/15 19:06:56;;;;;;;19.20;13.05;;;21.60;99.90;;;;;;6178986;23;20017;-78
2023/09/15 19:09:23;;;;;;;23.10;16.27;;;21.50;99.90;;;;;;6151390;23;20018;-77
2023/09/15 19:11:51;;;;;;;19.02;13.43;;;21.40;99.90;;;;;;6174211;23;20021;-78
2023/09/15 19:14:18;;;;;;;20.25;13.23;;;21.30;99.90;;;;;;6154884;23;20043;-77
2023/09/15 19:16:49;;;;;;;16.75;11.60;;;21.30;99.90;;;;;;6158151;23;20029;-77
2023/09/15 19:19:17;;;;;;;18.75;13.80;;;21.30;99.90;;;;;;6159269;23;20037;-78
2023/09/15 19:21:46;;;;;;;14.45;11.93;;;21.20;99.90;;;;;;6161693;23;20024;-78
2023/09/15 19:24:13;;;;;;;15.23;12.02;;;21.30;99.90;;;;;;6150987;23;20528;-77
2023/09/15 19:26:41;;;;;;;18.33;12.20;;;21.20;99.90;;;;;;6154396;23;20053;-78
2023/09/15 19:29:09;;;;;;;18.65;13.02;;;21.20;99.90;;;;;;6155879;23;20458;-79
2023/09/15 19:31:37;;;;;;;20.83;13.35;;;21.00;99.90;;;;;;6173188;23;20089;-76
2023/09/15 19:34:05;;;;;;;18.70;13.00;;;20.90;99.90;;;;;;6160443;23;20017;-80
2023/09/15 19:36:33;;;;;;;17.02;11.73;;;21.00;99.90;;;;;;6173508;23;20033;-78
2023/09/15 19:39:04;;;;;;;18.50;12.35;;;21.00;99.90;;;;;;6149327;23;20033;-77
2023/09/15 19:41:32;;;;;;;16.35;10.60;;;20.90;99.90;;;;;;6173941;23;20048;-79
2023/09/15 19:44:00;;;;;;;20.52;12.70;;;20.90;99.90;;;;;;6149480;23;20029;-78
2023/09/15 19:46:35;;;;;;;13.05;10.70;;;20.80;99.90;;;;;;6149422;23;20126;-79
2023/09/15 19:49:03;;;;;;;17.25;11.73;;;20.90;99.90;;;;;;6174895;23;20382;-80
2023/09/15 19:51:31;;;;;;;15.20;9.82;;;20.70;99.90;;;;;;6162511;23;20073;-78
2023/09/15 19:53:59;;;;;;;12.60;8.32;;;20.60;99.90;;;;;;6175512;23;20045;-79
2023/09/15 19:56:28;;;;;;;12.30;8.80;;;20.60;99.90;;;;;;6157562;23;20025;-80
2023/09/15 19:58:56;;;;;;;14.55;10.10;;;20.50;99.90;;;;;;6179736;23;20462;-77
2023/09/15 20:01:24;;;;;;;12.25;8.25;;;20.50;99.90;;;;;;6163212;23;20080;-80
2023/09/15 20:03:51;;;;;;;11.55;7.20;;;20.50;99.90;;;;;;6174912;23;20386;-78
2023/09/15 20:06:22;;;;;;;12.23;7.53;;;20.50;99.90;;;;;;6151628;23;20033;-83
2023/09/15 20:08:50;;;;;;;9.77;6.80;;;20.50;99.90;;;;;;6149386;23;20044;-80
2023/09/15 20:11:19;;;;;;;9.52;6.75;;;20.40;99.90;;;;;;6155575;23;20081;-80
2023/09/15 20:13:48;;;;;;;10.88;7.25;;;20.30;99.90;;;;;;6156394;23;20025;-78
2023/09/15 20:16:18;;;;;;;10.57;7.68;;;20.30;99.90;;;;;;6159295;23;20014;-79
2023/09/15 20:18:45;;;;;;;12.85;8.95;;;20.30;99.90;;;;;;6161494;23;20021;-79
2023/09/15 20:21:13;;;;;;;11.40;8.35;;;20.10;99.90;;;;;;6148786;23;20462;-79
2023/09/15 20:23:40;;;;;;;10.65;8.05;;;19.90;99.90;;;;;;6153196;23;20116;-80
2023/09/15 20:26:08;;;;;;;9.98;6.93;;;19.90;99.90;;;;;;6173972;23;20030;-81
2023/09/15 20:28:35;;;;;;;8.43;5.90;;;20.00;99.90;;;;;;6174426;23;20021;-78
2023/09/15 20:31:04;;;;;;;7.90;5.75;;;20.00;99.90;;;;;;6159865;23;20045;-79